sensor_id;sensor_type;location;lat;lon;timestamp;P1;durP1;ratioP1;P2;durP2;ratioP2
60239;SDS011;46102;39.012;-7.064;2022-08-26T00:01:38;6.32;;;4.97;;
60239;SDS011;46102;39.012;-7.064;2022-08-26T00:03:41;4.97;;;4.40;;
60239;SDS011;46102;39.012;-7.064;2022-08-26T00:05:42;8.13;;;4.35;;
60239;SDS011;46102;39.012;-7.064;2022-08-26T00:07:45;7.57;;;4.65;;
60239;SDS011;46102;39.012;-7.064;2022-08-26T00:09:46;7.63;;;4.30;;
60239;SDS011;46102;39.012;-7.064;2022-08-26T00:11:46;4.65;;;4.30;;
60239;SDS011;46102;39.012;-7.064;2022-08-26T00:13:47;5.20;;;4.70;;
60239;SDS011;46102;39.012;-7.064;2022-08-26T00:15:48;7.20;;;4.45;;
60239;SDS011;46102;39.012;-7.064;2022-08-26T00:17:50;6.45;;;4.90;;
60239;SDS011;46102;39.012;-7.064;2022-08-26T00:19:52;5.63;;;4.53;;
60239;SDS011;46102;39.012;-7.064;2022-08-26T00:21:53;10.95;;;4.20;;
60239;SDS011;46102;39.012;-7.064;2022-08-26T00:23:53;4.53;;;4.10;;
60239;SDS011;46102;39.012;-7.064;2022-08-26T00:25:54;5.72;;;4.82;;
60239;SDS011;46102;39.012;-7.064;2022-08-26T00:27:56;6.22;;;4.60;;
60239;SDS011;46102;39.012;-7.064;2022-08-26T00:29:56;4.70;;;4.30;;
60239;SDS011;46102;39.012;-7.064;2022-08-26T00:31:57;5.15;;;4.40;;
60239;SDS011;46102;39.012;-7.064;2022-08-26T00:33:58;9.45;;;4.63;;
60239;SDS011;46102;39.012;-7.064;2022-08-26T00:35:59;6.15;;;4.32;;
60239;SDS011;46102;39.012;-7.064;2022-08-26T00:38:01;5.32;;;4.15;;
60239;SDS011;46102;39.012;-7.064;2022-08-26T00:40:05;7.60;;;4.13;;
60239;SDS011;46102;39.012;-7.064;2022-08-26T00:42:09;7.65;;;4.47;;
60239;SDS011;46102;39.012;-7.064;2022-08-26T00:44:09;8.07;;;4.45;;
60239;SDS011;46102;39.012;-7.064;2022-08-26T00:46:14;11.38;;;4.40;;
60239;SDS011;46102;39.012;-7.064;2022-08-26T00:48:20;7.32;;;4.22;;
60239;SDS011;46102;39.012;-7.064;2022-08-26T00:50:25;6.30;;;4.07;;
60239;SDS011;46102;39.012;-7.064;2022-08-26T00:52:28;11.25;;;4.13;;
60239;SDS011;46102;39.012;-7.064;2022-08-26T00:54:31;6.53;;;3.60;;
60239;SDS011;46102;39.012;-7.064;2022-08-26T00:56:37;5.68;;;4.35;;
60239;SDS011;46102;39.012;-7.064;2022-08-26T00:58:45;9.43;;;4.28;;
60239;SDS011;46102;39.012;-7.064;2022-08-26T01:00:47;8.23;;;3.95;;
60239;SDS011;46102;39.012;-7.064;2022-08-26T01:02:48;7.95;;;3.83;;
60239;SDS011;46102;39.012;-7.064;2022-08-26T01:04:51;4.78;;;4.28;;
60239;SDS011;46102;39.012;-7.064;2022-08-26T01:06:54;5.13;;;4.03;;
60239;SDS011;46102;39.012;-7.064;2022-08-26T01:08:56;6.70;;;4.20;;
60239;SDS011;46102;39.012;-7.064;2022-08-26T01:10:57;6.88;;;4.40;;
60239;SDS011;46102;39.012;-7.064;2022-08-26T01:13:02;9.55;;;3.78;;
60239;SDS011;46102;39.012;-7.064;2022-08-26T01:15:09;5.32;;;3.33;;
60239;SDS011;46102;39.012;-7.064;2022-08-26T01:17:14;4.57;;;4.15;;
60239;SDS011;46102;39.012;-7.064;2022-08-26T01:19:22;8.02;;;3.78;;
60239;SDS011;46102;39.012;-7.064;2022-08-26T01:21:30;10.98;;;3.97;;
60239;SDS011;46102;39.012;-7.064;2022-08-26T01:23:37;5.72;;;3.92;;
60239;SDS011;46102;39.012;-7.064;2022-08-26T01:25:42;9.55;;;4.03;;
60239;SDS011;46102;39.012;-7.064;2022-08-26T01:27:46;6.78;;;3.53;;
60239;SDS011;46102;39.012;-7.064;2022-08-26T01:29:47;5.85;;;4.03;;
60239;SDS011;46102;39.012;-7.064;2022-08-26T01:31:51;4.40;;;3.60;;
60239;SDS011;46102;39.012;-7.064;2022-08-26T01:36:18;6.60;;;4.00;;
60239;SDS011;46102;39.012;-7.064;2022-08-26T01:38:19;5.82;;;3.80;;
60239;SDS011;46102;39.012;-7.064;2022-08-26T01:40:22;6.22;;;4.00;;
60239;SDS011;46102;39.012;-7.064;2022-08-26T01:42:27;10.05;;;4.10;;
60239;SDS011;46102;39.012;-7.064;2022-08-26T01:44:30;7.60;;;3.97;;
60239;SDS011;46102;39.012;-7.064;2022-08-26T01:46:35;7.25;;;3.90;;
60239;SDS011;46102;39.012;-7.064;2022-08-26T01:48:36;5.00;;;3.50;;
60239;SDS011;46102;39.012;-7.064;2022-08-26T01:50:38;9.57;;;4.22;;
60239;SDS011;46102;39.012;-7.064;2022-08-26T01:52:41;6.38;;;3.63;;
60239;SDS011;46102;39.012;-7.064;2022-08-26T01:54:44;5.75;;;4.07;;
60239;SDS011;46102;39.012;-7.064;2022-08-26T01:56:46;4.40;;;3.53;;
60239;SDS011;46102;39.012;-7.064;2022-08-26T01:58:49;5.57;;;3.92;;
60239;SDS011;46102;39.012;-7.064;2022-08-26T02:00:53;6.97;;;3.78;;
60239;SDS011;46102;39.012;-7.064;2022-08-26T02:02:54;3.60;;;3.30;;
60239;SDS011;46102;39.012;-7.064;2022-08-26T02:05:16;4.25;;;3.15;;
60239;SDS011;46102;39.012;-7.064;2022-08-26T02:07:20;6.90;;;3.60;;
60239;SDS011;46102;39.012;-7.064;2022-08-26T02:09:23;7.55;;;3.38;;
60239;SDS011;46102;39.012;-7.064;2022-08-26T02:11:24;3.53;;;2.95;;
60239;SDS011;46102;39.012;-7.064;2022-08-26T02:13:25;5.60;;;3.25;;
60239;SDS011;46102;39.012;-7.064;2022-08-26T02:15:30;8.30;;;3.60;;
60239;SDS011;46102;39.012;-7.064;2022-08-26T02:17:36;5.65;;;2.92;;
60239;SDS011;46102;39.012;-7.064;2022-08-26T02:19:44;11.23;;;3.90;;
60239;SDS011;46102;39.012;-7.064;2022-08-26T02:21:47;9.00;;;3.13;;
60239;SDS011;46102;39.012;-7.064;2022-08-26T02:23:48;6.85;;;3.88;;
60239;SDS011;46102;39.012;-7.064;2022-08-26T02:26:02;3.47;;;3.08;;
60239;SDS011;46102;39.012;-7.064;2022-08-26T02:28:11;7.15;;;3.95;;
60239;SDS011;46102;39.012;-7.064;2022-08-26T02:30:18;6.88;;;3.53;;
60239;SDS011;46102;39.012;-7.064;2022-08-26T02:32:21;6.93;;;4.10;;
60239;SDS011;46102;39.012;-7.064;2022-08-26T02:34:25;5.65;;;3.10;;
60239;SDS011;46102;39.012;-7.064;2022-08-26T02:36:28;8.95;;;3.53;;
60239;SDS011;46102;39.012;-7.064;2022-08-26T02:38:29;7.47;;;3.60;;
60239;SDS011;46102;39.012;-7.064;2022-08-26T02:40:32;7.70;;;4.03;;
60239;SDS011;46102;39.012;-7.064;2022-08-26T02:42:38;7.50;;;3.22;;
60239;SDS011;46102;39.012;-7.064;2022-08-26T02:44:39;5.35;;;3.08;;
60239;SDS011;46102;39.012;-7.064;2022-08-26T02:46:40;4.10;;;2.70;;
60239;SDS011;46102;39.012;-7.064;2022-08-26T02:48:41;7.00;;;3.40;;
60239;SDS011;46102;39.012;-7.064;2022-08-26T02:50:42;4.70;;;2.63;;
60239;SDS011;46102;39.012;-7.064;2022-08-26T02:52:44;6.40;;;2.53;;
60239;SDS011;46102;39.012;-7.064;2022-08-26T02:54:44;5.45;;;2.95;;
60239;SDS011;46102;39.012;-7.064;2022-08-26T02:56:45;12.00;;;3.17;;
60239;SDS011;46102;39.012;-7.064;2022-08-26T02:58:47;4.63;;;2.38;;
60239;SDS011;46102;39.012;-7.064;2022-08-26T03:00:48;5.82;;;2.40;;
60239;SDS011;46102;39.012;-7.064;2022-08-26T03:02:48;7.65;;;2.45;;
60239;SDS011;46102;39.012;-7.064;2022-08-26T03:04:49;3.47;;;2.25;;
60239;SDS011;46102;39.012;-7.064;2022-08-26T03:06:50;5.78;;;2.60;;
60239;SDS011;46102;39.012;-7.064;2022-08-26T03:08:51;6.68;;;2.30;;
60239;SDS011;46102;39.012;-7.064;2022-08-26T03:10:52;7.72;;;2.90;;
60239;SDS011;46102;39.012;-7.064;2022-08-26T03:12:53;9.52;;;3.80;;
60239;SDS011;46102;39.012;-7.064;2022-08-26T03:14:53;5.55;;;2.70;;
60239;SDS011;46102;39.012;-7.064;2022-08-26T03:16:55;6.93;;;2.80;;
60239;SDS011;46102;39.012;-7.064;2022-08-26T03:18:56;4.15;;;2.72;;
60239;SDS011;46102;39.012;-7.064;2022-08-26T03:20:56;5.88;;;2.70;;
60239;SDS011;46102;39.012;-7.064;2022-08-26T03:22:57;6.40;;;3.13;;
60239;SDS011;46102;39.012;-7.064;2022-08-26T03:24:58;5.47;;;2.50;;
60239;SDS011;46102;39.012;-7.064;2022-08-26T03:26:59;5.32;;;3.00;;
60239;SDS011;46102;39.012;-7.064;2022-08-26T03:29:01;4.55;;;2.67;;
60239;SDS011;46102;39.012;-7.064;2022-08-26T03:31:20;4.15;;;2.50;;
60239;SDS011;46102;39.012;-7.064;2022-08-26T03:33:21;5.05;;;2.20;;
60239;SDS011;46102;39.012;-7.064;2022-08-26T03:35:23;7.18;;;2.95;;
60239;SDS011;46102;39.012;-7.064;2022-08-26T03:37:24;8.93;;;2.85;;
60239;SDS011;46102;39.012;-7.064;2022-08-26T03:39:25;2.90;;;2.20;;
60239;SDS011;46102;39.012;-7.064;2022-08-26T03:41:26;3.47;;;2.42;;
60239;SDS011;46102;39.012;-7.064;2022-08-26T03:43:27;3.30;;;2.35;;
60239;SDS011;46102;39.012;-7.064;2022-08-26T03:45:28;5.57;;;2.03;;
60239;SDS011;46102;39.012;-7.064;2022-08-26T03:47:29;5.72;;;2.55;;
60239;SDS011;46102;39.012;-7.064;2022-08-26T03:49:30;10.20;;;2.35;;
60239;SDS011;46102;39.012;-7.064;2022-08-26T03:51:34;6.63;;;2.65;;
60239;SDS011;46102;39.012;-7.064;2022-08-26T03:53:35;5.57;;;3.05;;
60239;SDS011;46102;39.012;-7.064;2022-08-26T03:55:36;11.02;;;2.13;;
60239;SDS011;46102;39.012;-7.064;2022-08-26T03:57:37;12.23;;;2.88;;
60239;SDS011;46102;39.012;-7.064;2022-08-26T03:59:38;4.88;;;2.20;;
60239;SDS011;46102;39.012;-7.064;2022-08-26T04:01:39;5.50;;;2.13;;
60239;SDS011;46102;39.012;-7.064;2022-08-26T04:03:40;8.00;;;2.40;;
60239;SDS011;46102;39.012;-7.064;2022-08-26T04:05:59;5.88;;;2.60;;
60239;SDS011;46102;39.012;-7.064;2022-08-26T04:07:59;8.02;;;2.47;;
60239;SDS011;46102;39.012;-7.064;2022-08-26T04:10:00;8.65;;;2.28;;
60239;SDS011;46102;39.012;-7.064;2022-08-26T04:12:01;8.50;;;2.55;;
60239;SDS011;46102;39.012;-7.064;2022-08-26T04:14:03;5.43;;;1.92;;
60239;SDS011;46102;39.012;-7.064;2022-08-26T04:16:07;6.72;;;2.50;;
60239;SDS011;46102;39.012;-7.064;2022-08-26T04:18:08;5.43;;;2.30;;
60239;SDS011;46102;39.012;-7.064;2022-08-26T04:20:09;4.70;;;2.63;;
60239;SDS011;46102;39.012;-7.064;2022-08-26T04:24:14;4.65;;;2.15;;
60239;SDS011;46102;39.012;-7.064;2022-08-26T04:26:18;10.52;;;2.30;;
60239;SDS011;46102;39.012;-7.064;2022-08-26T04:28:20;7.00;;;2.30;;
60239;SDS011;46102;39.012;-7.064;2022-08-26T04:30:21;4.78;;;2.38;;
60239;SDS011;46102;39.012;-7.064;2022-08-26T04:32:22;6.15;;;2.30;;
60239;SDS011;46102;39.012;-7.064;2022-08-26T04:34:23;6.63;;;2.38;;
60239;SDS011;46102;39.012;-7.064;2022-08-26T04:36:26;14.60;;;3.65;;
60239;SDS011;46102;39.012;-7.064;2022-08-26T04:38:27;4.88;;;2.20;;
60239;SDS011;46102;39.012;-7.064;2022-08-26T04:40:28;9.23;;;2.38;;
60239;SDS011;46102;39.012;-7.064;2022-08-26T04:42:30;8.52;;;3.72;;
60239;SDS011;46102;39.012;-7.064;2022-08-26T04:44:33;12.27;;;3.05;;
60239;SDS011;46102;39.012;-7.064;2022-08-26T04:46:35;5.72;;;2.85;;
60239;SDS011;46102;39.012;-7.064;2022-08-26T04:48:36;7.43;;;2.92;;
60239;SDS011;46102;39.012;-7.064;2022-08-26T04:50:37;4.28;;;2.67;;
60239;SDS011;46102;39.012;-7.064;2022-08-26T04:52:37;10.35;;;2.65;;
60239;SDS011;46102;39.012;-7.064;2022-08-26T04:54:38;7.18;;;3.10;;
60239;SDS011;46102;39.012;-7.064;2022-08-26T04:56:40;5.53;;;3.38;;
60239;SDS011;46102;39.012;-7.064;2022-08-26T04:58:42;5.45;;;2.88;;
60239;SDS011;46102;39.012;-7.064;2022-08-26T05:00:43;10.15;;;2.83;;
60239;SDS011;46102;39.012;-7.064;2022-08-26T05:02:45;9.68;;;2.70;;
60239;SDS011;46102;39.012;-7.064;2022-08-26T05:04:47;8.70;;;2.63;;
60239;SDS011;46102;39.012;-7.064;2022-08-26T05:06:48;8.07;;;3.20;;
60239;SDS011;46102;39.012;-7.064;2022-08-26T05:08:49;11.27;;;2.95;;
60239;SDS011;46102;39.012;-7.064;2022-08-26T05:10:52;7.50;;;3.20;;
60239;SDS011;46102;39.012;-7.064;2022-08-26T05:12:55;11.48;;;3.22;;
60239;SDS011;46102;39.012;-7.064;2022-08-26T05:16:59;5.72;;;3.53;;
60239;SDS011;46102;39.012;-7.064;2022-08-26T05:19:01;6.75;;;3.00;;
60239;SDS011;46102;39.012;-7.064;2022-08-26T05:21:02;8.95;;;2.75;;
60239;SDS011;46102;39.012;-7.064;2022-08-26T05:23:03;7.18;;;3.28;;
60239;SDS011;46102;39.012;-7.064;2022-08-26T05:25:04;7.35;;;3.58;;
60239;SDS011;46102;39.012;-7.064;2022-08-26T05:27:05;12.35;;;3.63;;
60239;SDS011;46102;39.012;-7.064;2022-08-26T05:29:06;10.70;;;3.78;;
60239;SDS011;46102;39.012;-7.064;2022-08-26T05:31:10;8.48;;;3.97;;
60239;SDS011;46102;39.012;-7.064;2022-08-26T05:33:12;10.32;;;3.95;;
60239;SDS011;46102;39.012;-7.064;2022-08-26T05:35:15;9.95;;;4.20;;
60239;SDS011;46102;39.012;-7.064;2022-08-26T05:37:17;13.57;;;4.22;;
60239;SDS011;46102;39.012;-7.064;2022-08-26T05:39:18;10.30;;;4.10;;
60239;SDS011;46102;39.012;-7.064;2022-08-26T05:43:32;11.55;;;5.30;;
60239;SDS011;46102;39.012;-7.064;2022-08-26T05:45:32;16.88;;;5.22;;
60239;SDS011;46102;39.012;-7.064;2022-08-26T05:47:33;7.75;;;4.82;;
60239;SDS011;46102;39.012;-7.064;2022-08-26T05:49:35;11.68;;;4.32;;
60239;SDS011;46102;39.012;-7.064;2022-08-26T05:51:35;9.65;;;5.28;;
60239;SDS011;46102;39.012;-7.064;2022-08-26T05:53:38;11.35;;;4.90;;
60239;SDS011;46102;39.012;-7.064;2022-08-26T05:55:44;14.68;;;4.53;;
60239;SDS011;46102;39.012;-7.064;2022-08-26T05:57:47;9.15;;;4.82;;
60239;SDS011;46102;39.012;-7.064;2022-08-26T05:59:48;6.07;;;4.20;;
60239;SDS011;46102;39.012;-7.064;2022-08-26T06:01:49;12.18;;;4.90;;
60239;SDS011;46102;39.012;-7.064;2022-08-26T06:03:50;16.98;;;5.60;;
60239;SDS011;46102;39.012;-7.064;2022-08-26T06:05:53;10.77;;;5.00;;
60239;SDS011;46102;39.012;-7.064;2022-08-26T06:07:54;10.18;;;5.93;;
60239;SDS011;46102;39.012;-7.064;2022-08-26T06:10:11;13.90;;;5.22;;
60239;SDS011;46102;39.012;-7.064;2022-08-26T06:12:13;9.60;;;5.03;;
60239;SDS011;46102;39.012;-7.064;2022-08-26T06:14:15;9.18;;;4.85;;
60239;SDS011;46102;39.012;-7.064;2022-08-26T06:16:17;13.30;;;5.38;;
60239;SDS011;46102;39.012;-7.064;2022-08-26T06:18:20;5.45;;;4.95;;
60239;SDS011;46102;39.012;-7.064;2022-08-26T06:20:23;8.18;;;5.15;;
60239;SDS011;46102;39.012;-7.064;2022-08-26T06:22:24;10.73;;;6.63;;
60239;SDS011;46102;39.012;-7.064;2022-08-26T06:24:43;8.18;;;4.65;;
60239;SDS011;46102;39.012;-7.064;2022-08-26T06:27:04;7.45;;;4.35;;
60239;SDS011;46102;39.012;-7.064;2022-08-26T06:29:08;9.77;;;4.75;;
60239;SDS011;46102;39.012;-7.064;2022-08-26T06:31:09;8.25;;;5.30;;
60239;SDS011;46102;39.012;-7.064;2022-08-26T06:33:10;6.10;;;4.53;;
60239;SDS011;46102;39.012;-7.064;2022-08-26T06:35:12;5.22;;;4.45;;
60239;SDS011;46102;39.012;-7.064;2022-08-26T06:37:13;8.95;;;4.70;;
60239;SDS011;46102;39.012;-7.064;2022-08-26T06:39:15;7.10;;;4.93;;
60239;SDS011;46102;39.012;-7.064;2022-08-26T06:41:17;6.40;;;4.13;;
60239;SDS011;46102;39.012;-7.064;2022-08-26T06:43:21;6.78;;;4.95;;
60239;SDS011;46102;39.012;-7.064;2022-08-26T06:45:23;8.13;;;4.27;;
60239;SDS011;46102;39.012;-7.064;2022-08-26T06:47:24;5.60;;;4.80;;
60239;SDS011;46102;39.012;-7.064;2022-08-26T06:49:25;8.43;;;4.85;;
60239;SDS011;46102;39.012;-7.064;2022-08-26T06:51:26;9.25;;;5.85;;
60239;SDS011;46102;39.012;-7.064;2022-08-26T06:53:29;9.73;;;4.88;;
60239;SDS011;46102;39.012;-7.064;2022-08-26T06:55:30;9.82;;;5.65;;
60239;SDS011;46102;39.012;-7.064;2022-08-26T06:57:31;7.15;;;4.45;;
60239;SDS011;46102;39.012;-7.064;2022-08-26T06:59:33;11.63;;;6.00;;
60239;SDS011;46102;39.012;-7.064;2022-08-26T07:01:36;14.32;;;4.97;;
60239;SDS011;46102;39.012;-7.064;2022-08-26T07:05:39;11.80;;;5.05;;
60239;SDS011;46102;39.012;-7.064;2022-08-26T07:07:39;14.30;;;5.40;;
60239;SDS011;46102;39.012;-7.064;2022-08-26T07:09:40;9.63;;;5.97;;
60239;SDS011;46102;39.012;-7.064;2022-08-26T07:11:41;15.82;;;6.88;;
60239;SDS011;46102;39.012;-7.064;2022-08-26T07:13:44;14.38;;;8.18;;
60239;SDS011;46102;39.012;-7.064;2022-08-26T07:15:45;13.48;;;8.75;;
60239;SDS011;46102;39.012;-7.064;2022-08-26T07:17:46;12.88;;;9.38;;
60239;SDS011;46102;39.012;-7.064;2022-08-26T07:19:46;18.45;;;11.75;;
60239;SDS011;46102;39.012;-7.064;2022-08-26T07:21:48;15.77;;;10.55;;
60239;SDS011;46102;39.012;-7.064;2022-08-26T07:23:49;22.30;;;11.73;;
60239;SDS011;46102;39.012;-7.064;2022-08-26T07:25:50;15.55;;;11.35;;
60239;SDS011;46102;39.012;-7.064;2022-08-26T07:27:51;20.25;;;12.45;;
60239;SDS011;46102;39.012;-7.064;2022-08-26T07:29:54;21.88;;;12.77;;
60239;SDS011;46102;39.012;-7.064;2022-08-26T07:31:56;22.15;;;12.85;;
60239;SDS011;46102;39.012;-7.064;2022-08-26T07:33:57;17.10;;;11.27;;
60239;SDS011;46102;39.012;-7.064;2022-08-26T07:35:58;16.65;;;10.85;;
60239;SDS011;46102;39.012;-7.064;2022-08-26T07:37:59;20.50;;;11.07;;
60239;SDS011;46102;39.012;-7.064;2022-08-26T07:40:00;13.02;;;10.05;;
60239;SDS011;46102;39.012;-7.064;2022-08-26T07:42:02;13.35;;;10.15;;
60239;SDS011;46102;39.012;-7.064;2022-08-26T07:44:06;16.73;;;11.18;;
60239;SDS011;46102;39.012;-7.064;2022-08-26T07:46:08;17.83;;;11.57;;
60239;SDS011;46102;39.012;-7.064;2022-08-26T07:48:10;13.75;;;10.43;;
60239;SDS011;46102;39.012;-7.064;2022-08-26T07:50:11;13.65;;;9.80;;
60239;SDS011;46102;39.012;-7.064;2022-08-26T07:52:12;14.88;;;10.50;;
60239;SDS011;46102;39.012;-7.064;2022-08-26T07:54:13;19.38;;;10.65;;
60239;SDS011;46102;39.012;-7.064;2022-08-26T07:56:14;13.52;;;9.43;;
60239;SDS011;46102;39.012;-7.064;2022-08-26T07:58:15;16.95;;;9.20;;
60239;SDS011;46102;39.012;-7.064;2022-08-26T08:00:16;15.18;;;8.57;;
60239;SDS011;46102;39.012;-7.064;2022-08-26T08:02:17;10.15;;;7.43;;
60239;SDS011;46102;39.012;-7.064;2022-08-26T08:04:18;12.82;;;8.32;;
60239;SDS011;46102;39.012;-7.064;2022-08-26T08:06:20;9.63;;;7.57;;
60239;SDS011;46102;39.012;-7.064;2022-08-26T08:08:23;11.75;;;7.57;;
60239;SDS011;46102;39.012;-7.064;2022-08-26T08:10:24;8.90;;;7.72;;
60239;SDS011;46102;39.012;-7.064;2022-08-26T08:12:26;10.63;;;7.20;;
60239;SDS011;46102;39.012;-7.064;2022-08-26T08:14:27;15.73;;;8.77;;
60239;SDS011;46102;39.012;-7.064;2022-08-26T08:16:28;8.90;;;7.45;;
60239;SDS011;46102;39.012;-7.064;2022-08-26T08:18:29;11.48;;;7.60;;
60239;SDS011;46102;39.012;-7.064;2022-08-26T08:20:29;20.27;;;7.88;;
60239;SDS011;46102;39.012;-7.064;2022-08-26T08:22:31;16.67;;;6.88;;
60239;SDS011;46102;39.012;-7.064;2022-08-26T08:24:32;11.98;;;8.13;;
60239;SDS011;46102;39.012;-7.064;2022-08-26T08:26:33;11.63;;;7.85;;
60239;SDS011;46102;39.012;-7.064;2022-08-26T08:28:35;11.40;;;8.45;;
60239;SDS011;46102;39.012;-7.064;2022-08-26T08:30:38;10.20;;;7.38;;
60239;SDS011;46102;39.012;-7.064;2022-08-26T08:32:40;14.75;;;9.02;;
60239;SDS011;46102;39.012;-7.064;2022-08-26T08:34:43;23.27;;;8.13;;
60239;SDS011;46102;39.012;-7.064;2022-08-26T08:36:44;18.15;;;7.07;;
60239;SDS011;46102;39.012;-7.064;2022-08-26T08:38:48;11.32;;;6.57;;
60239;SDS011;46102;39.012;-7.064;2022-08-26T08:40:49;19.95;;;7.07;;
60239;SDS011;46102;39.012;-7.064;2022-08-26T08:45:00;15.10;;;7.68;;
60239;SDS011;46102;39.012;-7.064;2022-08-26T08:47:14;8.80;;;7.63;;
60239;SDS011;46102;39.012;-7.064;2022-08-26T08:49:20;13.38;;;8.82;;
60239;SDS011;46102;39.012;-7.064;2022-08-26T08:53:40;11.98;;;6.95;;
60239;SDS011;46102;39.012;-7.064;2022-08-26T08:58:04;8.40;;;5.53;;
60239;SDS011;46102;39.012;-7.064;2022-08-26T09:00:08;5.35;;;4.85;;
60239;SDS011;46102;39.012;-7.064;2022-08-26T09:04:42;10.70;;;5.28;;
60239;SDS011;46102;39.012;-7.064;2022-08-26T09:06:54;9.13;;;5.05;;
60239;SDS011;46102;39.012;-7.064;2022-08-26T09:11:00;9.52;;;4.68;;
60239;SDS011;46102;39.012;-7.064;2022-08-26T09:13:07;6.68;;;4.43;;
60239;SDS011;46102;39.012;-7.064;2022-08-26T09:19:40;3.80;;;3.45;;
60239;SDS011;46102;39.012;-7.064;2022-08-26T09:21:53;3.95;;;3.50;;
60239;SDS011;46102;39.012;-7.064;2022-08-26T09:23:55;4.50;;;3.78;;
60239;SDS011;46102;39.012;-7.064;2022-08-26T09:25:59;5.78;;;4.60;;
60239;SDS011;46102;39.012;-7.064;2022-08-26T09:28:03;6.82;;;4.10;;
60239;SDS011;46102;39.012;-7.064;2022-08-26T09:30:26;6.22;;;3.90;;
60239;SDS011;46102;39.012;-7.064;2022-08-26T09:32:29;4.85;;;4.05;;
60239;SDS011;46102;39.012;-7.064;2022-08-26T09:34:31;3.95;;;3.50;;
60239;SDS011;46102;39.012;-7.064;2022-08-26T09:36:36;6.15;;;3.83;;
60239;SDS011;46102;39.012;-7.064;2022-08-26T09:38:38;4.68;;;3.22;;
60239;SDS011;46102;39.012;-7.064;2022-08-26T09:40:40;3.92;;;3.53;;
60239;SDS011;46102;39.012;-7.064;2022-08-26T09:43:12;3.97;;;3.55;;
60239;SDS011;46102;39.012;-7.064;2022-08-26T09:45:15;6.32;;;3.40;;
60239;SDS011;46102;39.012;-7.064;2022-08-26T09:47:31;7.38;;;3.67;;
60239;SDS011;46102;39.012;-7.064;2022-08-26T09:49:37;5.05;;;3.42;;
60239;SDS011;46102;39.012;-7.064;2022-08-26T09:51:39;7.47;;;3.53;;
60239;SDS011;46102;39.012;-7.064;2022-08-26T09:53:50;4.05;;;3.60;;
60239;SDS011;46102;39.012;-7.064;2022-08-26T09:56:14;4.25;;;3.65;;
60239;SDS011;46102;39.012;-7.064;2022-08-26T10:04:33;7.95;;;3.50;;
60239;SDS011;46102;39.012;-7.064;2022-08-26T10:06:35;4.35;;;3.88;;
60239;SDS011;46102;39.012;-7.064;2022-08-26T10:08:43;5.53;;;3.85;;
60239;SDS011;46102;39.012;-7.064;2022-08-26T10:10:46;7.65;;;3.88;;
60239;SDS011;46102;39.012;-7.064;2022-08-26T10:12:53;7.53;;;4.00;;
60239;SDS011;46102;39.012;-7.064;2022-08-26T10:15:02;5.45;;;4.03;;
60239;SDS011;46102;39.012;-7.064;2022-08-26T10:19:33;4.95;;;3.38;;
60239;SDS011;46102;39.012;-7.064;2022-08-26T10:23:51;4.55;;;3.53;;
60239;SDS011;46102;39.012;-7.064;2022-08-26T10:25:56;8.05;;;3.72;;
60239;SDS011;46102;39.012;-7.064;2022-08-26T10:28:07;3.85;;;3.50;;
60239;SDS011;46102;39.012;-7.064;2022-08-26T10:30:12;4.35;;;3.38;;
60239;SDS011;46102;39.012;-7.064;2022-08-26T10:34:30;3.45;;;3.08;;
60239;SDS011;46102;39.012;-7.064;2022-08-26T10:36:33;3.83;;;3.40;;
60239;SDS011;46102;39.012;-7.064;2022-08-26T10:38:50;5.40;;;3.35;;
60239;SDS011;46102;39.012;-7.064;2022-08-26T10:43:24;4.38;;;3.75;;
60239;SDS011;46102;39.012;-7.064;2022-08-26T10:45:30;3.67;;;3.35;;
60239;SDS011;46102;39.012;-7.064;2022-08-26T10:47:40;7.65;;;3.60;;
60239;SDS011;46102;39.012;-7.064;2022-08-26T10:49:42;4.07;;;3.70;;
60239;SDS011;46102;39.012;-7.064;2022-08-26T10:51:50;4.30;;;3.35;;
60239;SDS011;46102;39.012;-7.064;2022-08-26T10:54:03;4.90;;;3.63;;
60239;SDS011;46102;39.012;-7.064;2022-08-26T11:01:09;5.60;;;3.75;;
60239;SDS011;46102;39.012;-7.064;2022-08-26T11:03:40;5.07;;;3.25;;
60239;SDS011;46102;39.012;-7.064;2022-08-26T11:14:34;3.58;;;3.10;;
60239;SDS011;46102;39.012;-7.064;2022-08-26T11:18:44;4.10;;;3.03;;
60239;SDS011;46102;39.012;-7.064;2022-08-26T11:20:45;3.72;;;3.40;;
60239;SDS011;46102;39.012;-7.064;2022-08-26T11:22:46;5.63;;;3.55;;
60239;SDS011;46102;39.012;-7.064;2022-08-26T11:26:56;7.00;;;2.88;;
60239;SDS011;46102;39.012;-7.064;2022-08-26T11:28:57;8.20;;;2.95;;
60239;SDS011;46102;39.012;-7.064;2022-08-26T11:30:58;5.22;;;3.30;;
60239;SDS011;46102;39.012;-7.064;2022-08-26T11:32:59;6.03;;;3.22;;
60239;SDS011;46102;39.012;-7.064;2022-08-26T11:35:05;3.58;;;3.00;;
60239;SDS011;46102;39.012;-7.064;2022-08-26T11:37:12;3.45;;;3.22;;
60239;SDS011;46102;39.012;-7.064;2022-08-26T11:41:28;3.70;;;2.80;;
60239;SDS011;46102;39.012;-7.064;2022-08-26T11:43:30;3.25;;;3.05;;
60239;SDS011;46102;39.012;-7.064;2022-08-26T11:45:35;7.47;;;2.95;;
60239;SDS011;46102;39.012;-7.064;2022-08-26T11:47:38;3.88;;;3.58;;
60239;SDS011;46102;39.012;-7.064;2022-08-26T11:49:40;2.97;;;2.75;;
60239;SDS011;46102;39.012;-7.064;2022-08-26T11:51:41;4.07;;;2.85;;
60239;SDS011;46102;39.012;-7.064;2022-08-26T11:53:42;5.45;;;2.72;;
60239;SDS011;46102;39.012;-7.064;2022-08-26T11:55:44;2.95;;;2.70;;
60239;SDS011;46102;39.012;-7.064;2022-08-26T11:57:46;4.15;;;2.95;;
60239;SDS011;46102;39.012;-7.064;2022-08-26T11:59:49;3.95;;;3.03;;
60239;SDS011;46102;39.012;-7.064;2022-08-26T12:01:51;4.47;;;3.05;;
60239;SDS011;46102;39.012;-7.064;2022-08-26T12:05:54;3.33;;;3.13;;
60239;SDS011;46102;39.012;-7.064;2022-08-26T12:07:56;3.72;;;3.22;;
60239;SDS011;46102;39.012;-7.064;2022-08-26T12:10:03;3.50;;;3.20;;
60239;SDS011;46102;39.012;-7.064;2022-08-26T12:14:20;3.40;;;3.00;;
60239;SDS011;46102;39.012;-7.064;2022-08-26T12:16:24;3.20;;;3.00;;
60239;SDS011;46102;39.012;-7.064;2022-08-26T12:18:31;3.70;;;3.40;;
60239;SDS011;46102;39.012;-7.064;2022-08-26T12:22:47;3.38;;;2.95;;
60239;SDS011;46102;39.012;-7.064;2022-08-26T12:25:00;4.30;;;3.55;;
60239;SDS011;46102;39.012;-7.064;2022-08-26T12:29:24;3.17;;;2.97;;
60239;SDS011;46102;39.012;-7.064;2022-08-26T12:31:31;3.08;;;2.83;;
60239;SDS011;46102;39.012;-7.064;2022-08-26T12:33:34;3.15;;;2.92;;
60239;SDS011;46102;39.012;-7.064;2022-08-26T12:35:36;4.13;;;2.83;;
60239;SDS011;46102;39.012;-7.064;2022-08-26T12:37:40;3.17;;;2.88;;
60239;SDS011;46102;39.012;-7.064;2022-08-26T12:39:44;4.05;;;3.50;;
60239;SDS011;46102;39.012;-7.064;2022-08-26T12:43:49;5.47;;;3.13;;
60239;SDS011;46102;39.012;-7.064;2022-08-26T12:45:54;3.90;;;3.60;;
60239;SDS011;46102;39.012;-7.064;2022-08-26T12:48:05;9.00;;;3.58;;
60239;SDS011;46102;39.012;-7.064;2022-08-26T12:50:07;3.78;;;3.30;;
60239;SDS011;46102;39.012;-7.064;2022-08-26T12:52:22;3.50;;;3.20;;
60239;SDS011;46102;39.012;-7.064;2022-08-26T12:54:31;4.40;;;3.47;;
60239;SDS011;46102;39.012;-7.064;2022-08-26T12:57:08;4.68;;;3.40;;
60239;SDS011;46102;39.012;-7.064;2022-08-26T13:01:20;4.65;;;3.20;;
60239;SDS011;46102;39.012;-7.064;2022-08-26T13:03:27;3.55;;;3.25;;
60239;SDS011;46102;39.012;-7.064;2022-08-26T13:05:36;3.67;;;3.35;;
60239;SDS011;46102;39.012;-7.064;2022-08-26T13:07:37;8.40;;;3.42;;
60239;SDS011;46102;39.012;-7.064;2022-08-26T13:09:38;3.15;;;2.95;;
60239;SDS011;46102;39.012;-7.064;2022-08-26T13:13:39;5.60;;;3.17;;
60239;SDS011;46102;39.012;-7.064;2022-08-26T13:15:40;3.50;;;3.30;;
60239;SDS011;46102;39.012;-7.064;2022-08-26T13:17:41;4.43;;;3.85;;
60239;SDS011;46102;39.012;-7.064;2022-08-26T13:19:41;4.22;;;3.03;;
60239;SDS011;46102;39.012;-7.064;2022-08-26T13:21:43;3.75;;;3.40;;
60239;SDS011;46102;39.012;-7.064;2022-08-26T13:23:48;3.50;;;3.20;;
60239;SDS011;46102;39.012;-7.064;2022-08-26T13:25:50;11.60;;;2.80;;
60239;SDS011;46102;39.012;-7.064;2022-08-26T13:27:51;8.60;;;3.83;;